Flughafen Sylt

Aus VATSIM Germany
Dies ist die bestätigte sowie die neueste Version dieser Seite.
Wechseln zu:Navigation, Suche
UnderCon icon.svg.pngDieser Artikel ist noch im Aufbau. Der Artikel kann daher unvollständig sein oder Fehler enthalten!


Error: No contents found at URL https://vatsim-germany.org/api/wiki/aerodrome/EDXW.
Error: No contents found at URL https://vatsim-germany.org/api/wiki/aerodrome/EDXW. Westerland Sylt Airport
ICAO / IATA Error: no local variable "icao" was set. / Error: no local variable "iata" was set.
Koordinaten NFehler im Ausdruck: Unerwarteter Operator <°Fehler im Ausdruck: Unerwarteter Operator <Fehler im Ausdruck: Unerwarteter Operator <″  Fehler im Ausdruck: Unerwarteter Operator <Fehler im Ausdruck: Unerwarteter Operator <°Fehler im Ausdruck: Unerwarteter Operator <Fehler im Ausdruck: Unerwarteter Operator <
Höhe Fehler im Ausdruck: Unerwarteter Operator < m / Error: no local variable "elevation" was set. ft
Wetter EDXW 171450Z 36011KT 9999 BKN025 15/09 Q1015
Pisten
Platzfrequenzen
Nur für Flugsimulationszwecke!



Informationen für Piloten und Lotsen
Pilotenbriefing

Standard Operating Procedures (SOP)

Letters of Agreement (LoAs)

Vorlage:Chartbox